Time;durP1;ratioP1;P1;durP2;ratioP2;P2;SDS_P1;SDS_P2;PMS_P1;PMS_P2;Temp;Humidity;BMP_temperature;BMP_pressure;BME280_temperature;BME280_humidity;BME280_pressure;Samples;Min_cycle;Max_cycle;Signal;HPM_P1;HPM_P2
2021/12/15 00:00:57;;;;;;;81.82;24.48;;;;;;;-0.42;71.68;99690.56;5154988;27;20117;-52
2021/12/15 00:03:23;;;;;;;62.50;22.88;;;;;;;-0.50;71.83;99691.34;5153149;27;20080;-52
2021/12/15 00:05:50;;;;;;;62.72;23.83;;;;;;;-0.49;71.94;99679.97;5152777;27;20527;-54
2021/12/15 00:08:16;;;;;;;60.63;22.75;;;;;;;-0.57;72.16;99677.31;5154349;27;20034;-54
2021/12/15 00:10:44;;;;;;;66.40;23.63;;;;;;;-0.55;72.50;99675.38;5153107;27;20035;-55
2021/12/15 00:13:12;;;;;;;64.68;22.70;;;;;;;-0.48;72.02;99671.16;5154494;27;20129;-54
2021/12/15 00:15:38;;;;;;;64.70;22.73;;;;;;;-0.42;71.34;99662.72;5154037;27;20045;-53
2021/12/15 00:18:04;;;;;;;67.80;22.25;;;;;;;-0.49;71.23;99661.72;5154398;27;20118;-55
2021/12/15 00:20:30;;;;;;;60.60;24.45;;;;;;;-0.51;71.82;99653.25;5153994;27;20551;-53
2021/12/15 00:22:56;;;;;;;71.60;22.38;;;;;;;-0.52;71.92;99649.03;5154106;27;20047;-54
2021/12/15 00:25:26;;;;;;;57.00;21.83;;;;;;;-0.67;72.09;99646.22;5152348;27;20385;-52
2021/12/15 00:27:52;;;;;;;72.38;22.55;;;;;;;-0.62;72.36;99649.16;5154076;27;20049;-56
2021/12/15 00:30:18;;;;;;;60.40;22.17;;;;;;;-0.70;72.13;99652.56;5154083;27;20534;-55
2021/12/15 00:32:44;;;;;;;58.95;21.35;;;;;;;-0.72;72.10;99649.28;5153734;27;20087;-51
2021/12/15 00:35:11;;;;;;;67.28;22.27;;;;;;;-0.60;72.18;99635.97;5152653;27;20046;-55
2021/12/15 00:37:37;;;;;;;57.83;20.65;;;;;;;-0.46;71.48;99646.59;5152507;27;20057;-55
2021/12/15 00:40:05;;;;;;;60.47;21.58;;;;;;;-0.60;71.23;99643.81;5152278;27;20077;-55
2021/12/15 00:42:31;;;;;;;56.08;21.25;;;;;;;-0.55;71.73;99641.53;5153404;27;20567;-55
2021/12/15 00:44:57;;;;;;;55.60;20.92;;;;;;;-0.57;71.52;99646.09;5151969;27;20082;-53
2021/12/15 00:47:23;;;;;;;54.22;21.17;;;;;;;-0.54;71.72;99641.38;5153650;27;20077;-54
2021/12/15 00:49:49;;;;;;;50.78;17.95;;;;;;;-0.47;71.17;99641.56;5152199;27;20056;-54
2021/12/15 00:52:14;;;;;;;52.10;19.42;;;;;;;-0.39;70.79;99638.94;5153586;27;20039;-55
2021/12/15 00:54:40;;;;;;;50.70;18.23;;;;;;;-0.29;71.07;99638.81;5153681;27;20095;-50
2021/12/15 00:57:06;;;;;;;51.33;19.33;;;;;;;-0.26;70.16;99644.53;5151730;27;20119;-54
2021/12/15 00:59:33;;;;;;;47.38;19.50;;;;;;;-0.28;70.57;99635.22;5135129;27;20034;-54
2021/12/15 01:01:59;;;;;;;45.95;17.08;;;;;;;-0.32;70.46;99624.31;5151914;27;20508;-54
2021/12/15 01:04:25;;;;;;;44.85;17.67;;;;;;;-0.31;70.20;99641.56;5151454;27;20043;-54
2021/12/15 01:06:55;;;;;;;43.80;16.88;;;;;;;-0.36;70.86;99633.41;5151714;27;20054;-52
2021/12/15 01:09:30;;;;;;;46.92;17.48;;;;;;;-0.26;70.07;99638.50;5152930;27;20077;-51
2021/12/15 01:19:50;;;;;;;45.50;17.60;;;;;;;-0.40;70.47;99623.50;5153281;27;20038;-54
2021/12/15 01:22:28;;;;;;;50.13;17.42;;;;;;;-0.33;70.89;99630.50;5151932;27;20043;-51
2021/12/15 01:24:59;;;;;;;49.38;17.80;;;;;;;-0.38;71.04;99624.97;5152871;27;20484;-54
2021/12/15 01:27:25;;;;;;;43.53;17.80;;;;;;;-0.42;71.34;99618.44;5151860;27;20049;-56
2021/12/15 01:29:51;;;;;;;42.47;17.38;;;;;;;-0.38;71.05;99613.72;5153298;27;20034;-54
2021/12/15 01:32:18;;;;;;;50.45;17.60;;;;;;;-0.53;71.14;99609.16;5151543;27;20083;-55
2021/12/15 01:34:44;;;;;;;45.65;17.85;;;;;;;-0.42;71.25;99613.22;5153151;27;20580;-55
2021/12/15 01:37:10;;;;;;;42.42;17.15;;;;;;;-0.35;71.12;99616.03;5152148;27;20051;-55
2021/12/15 01:39:36;;;;;;;46.40;18.20;;;;;;;-0.24;71.24;99624.34;5152913;27;20042;-55
2021/12/15 01:42:03;;;;;;;46.42;17.88;;;;;;;-0.20;70.79;99611.81;5151694;27;20038;-55
2021/12/15 01:47:02;;;;;;;44.38;17.52;;;;;;;-0.13;70.10;99601.53;5152823;27;20046;-53
2021/12/15 01:49:39;;;;;;;43.17;17.60;;;;;;;-0.07;70.34;99609.50;5151910;27;20058;-52
2021/12/15 01:52:15;;;;;;;41.67;17.42;;;;;;;-0.19;70.35;99616.03;5152922;27;20066;-51
2021/12/15 01:54:43;;;;;;;42.63;16.33;;;;;;;-0.21;69.87;99611.94;5151799;27;20046;-54
2021/12/15 01:57:12;;;;;;;36.53;13.82;;;;;;;-0.19;70.01;99604.78;5152715;27;20063;-54
2021/12/15 01:59:39;;;;;;;41.60;16.65;;;;;;;-0.22;70.31;99613.75;5134330;27;20038;-55
2021/12/15 02:02:06;;;;;;;38.28;16.10;;;;;;;-0.21;70.52;99612.75;5151527;27;20043;-52
2021/12/15 02:04:32;;;;;;;38.83;15.95;;;;;;;-0.19;70.32;99600.38;5151463;27;20134;-53
2021/12/15 02:06:59;;;;;;;41.10;16.33;;;;;;;-0.16;70.20;99592.25;5150469;27;20098;-55
2021/12/15 02:10:01;;;;;;;41.45;16.55;;;;;;;-0.21;70.03;99597.13;5134146;27;20041;-54
2021/12/15 02:12:24;;;;;;;37.30;16.42;;;;;;;-0.13;70.21;99596.31;5151822;27;20058;-54
2021/12/15 02:14:51;;;;;;;42.22;15.75;;;;;;;-0.20;69.68;99590.97;5152653;27;20060;-57
2021/12/15 02:17:17;;;;;;;36.90;16.83;;;;;;;-0.22;70.03;99592.91;5152362;27;20091;-57
2021/12/15 02:19:43;;;;;;;41.17;16.27;;;;;;;-0.15;70.18;99591.25;5156507;27;20514;-56
2021/12/15 02:22:09;;;;;;;40.25;15.13;;;;;;;-0.10;70.00;99586.38;5156788;27;20043;-54
2021/12/15 02:24:36;;;;;;;38.78;16.70;;;;;;;-0.06;69.85;99589.47;5156663;27;20046;-52
2021/12/15 02:27:03;;;;;;;37.65;15.48;;;;;;;-0.01;69.50;99587.19;5155322;27;20087;-53
2021/12/15 02:29:35;;;;;;;35.80;14.52;;;;;;;0.04;69.41;99589.31;5155067;27;20568;-55
2021/12/15 02:32:17;;;;;;;38.30;15.35;;;;;;;-0.04;69.67;99583.13;5155036;27;20503;-55
2021/12/15 02:37:19;;;;;;;31.75;13.95;;;;;;;-0.07;69.45;99588.66;5154475;27;20535;-56
2021/12/15 02:40:00;;;;;;;36.95;13.93;;;;;;;-0.03;69.02;99589.13;5155012;27;20367;-51
2021/12/15 02:42:29;;;;;;;34.60;14.27;;;;;;;-0.01;69.28;99589.81;5154752;27;20039;-54
2021/12/15 02:44:55;;;;;;;32.28;12.55;;;;;;;-0.16;68.84;99578.41;5156380;27;20130;-54
2021/12/15 02:47:24;;;;;;;28.55;12.35;;;;;;;-0.09;69.48;99584.59;5156058;27;20098;-55
2021/12/15 02:49:52;;;;;;;25.67;12.15;;;;;;;-0.10;69.06;99583.78;5154278;27;20110;-55
2021/12/15 02:52:18;;;;;;;28.98;11.98;;;;;;;-0.18;68.93;99575.16;5155903;27;20087;-52
2021/12/15 02:54:44;;;;;;;29.73;12.00;;;;;;;-0.32;69.87;99580.03;5155718;27;20472;-54
2021/12/15 02:57:12;;;;;;;30.17;13.20;;;;;;;-0.30;69.40;99575.47;5155362;27;20110;-53
2021/12/15 03:05:10;;;;;;;29.13;12.53;;;;;;;-0.29;70.05;99582.31;5135240;27;20057;-55
2021/12/15 03:07:58;;;;;;;31.17;12.10;;;;;;;-0.27;69.59;99577.75;5155620;27;20367;-52
2021/12/15 03:15:54;;;;;;;31.58;12.50;;;;;;;-0.20;70.56;99588.34;5155822;27;20072;-54
2021/12/15 03:18:22;;;;;;;30.65;13.43;;;;;;;-0.14;70.61;99592.91;5154956;27;20046;-56
2021/12/15 03:20:56;;;;;;;28.00;12.35;;;;;;;-0.09;70.01;99588.03;5154165;27;20043;-55
2021/12/15 03:23:28;;;;;;;33.50;12.70;;;;;;;-0.08;70.00;99591.44;5154176;27;20039;-53
2021/12/15 03:25:55;;;;;;;31.23;13.13;;;;;;;-0.28;69.98;99594.38;5155680;27;20034;-55
2021/12/15 03:39:24;;;;;;;33.78;13.52;;;;;;;-0.34;71.12;99568.16;5154964;27;20039;-52
2021/12/15 03:42:00;;;;;;;37.33;14.35;;;;;;;-0.42;70.92;99562.94;5154517;27;20106;-53
2021/12/15 03:44:27;;;;;;;30.80;12.10;;;;;;;-0.43;71.25;99564.72;5153583;27;20424;-56
2021/12/15 03:46:53;;;;;;;28.85;12.18;;;;;;;-0.36;71.26;99572.69;5154780;27;20189;-54
2021/12/15 03:49:19;;;;;;;32.13;12.65;;;;;;;-0.45;71.17;99577.09;5154982;27;20034;-55
2021/12/15 03:51:45;;;;;;;36.95;13.63;;;;;;;-0.51;71.73;99568.13;5155064;27;20062;-52
2021/12/15 03:54:11;;;;;;;34.50;12.60;;;;;;;-0.38;71.57;99566.84;5154693;27;20464;-51
2021/12/15 03:56:41;;;;;;;32.22;13.57;;;;;;;-0.39;71.04;99560.81;5153753;27;20055;-54
2021/12/15 03:59:08;;;;;;;28.02;12.70;;;;;;;-0.47;70.96;99553.84;5154785;27;20121;-54
2021/12/15 04:01:34;;;;;;;33.05;13.15;;;;;;;-0.45;71.74;99569.28;5152889;27;20081;-55
2021/12/15 04:04:01;;;;;;;30.98;12.48;;;;;;;-0.30;70.80;99569.44;5154505;27;20042;-54
2021/12/15 04:06:30;;;;;;;26.98;11.68;;;;;;;-0.42;71.20;99561.13;5153072;27;20673;-54
2021/12/15 04:08:57;;;;;;;28.45;11.85;;;;;;;-0.37;70.62;99563.28;5154599;27;20041;-55
2021/12/15 04:11:26;;;;;;;34.58;13.13;;;;;;;-0.53;71.20;99564.06;5153225;27;20440;-55
2021/12/15 04:13:58;;;;;;;30.63;12.65;;;;;;;-0.51;71.01;99557.72;5154198;27;20461;-54
2021/12/15 04:18:57;;;;;;;34.10;12.35;;;;;;;-0.66;71.93;99558.53;5154152;27;20038;-54
2021/12/15 04:21:23;;;;;;;33.15;12.57;;;;;;;-0.50;71.34;99563.72;5153788;27;20043;-55
2021/12/15 04:23:50;;;;;;;32.53;12.20;;;;;;;-0.45;71.68;99561.47;5153798;27;20049;-52
2021/12/15 04:26:16;;;;;;;26.02;12.18;;;;;;;-0.41;71.30;99560.19;5153309;27;20526;-50
2021/12/15 04:28:43;;;;;;;36.13;12.68;;;;;;;-0.43;71.26;99549.09;5153881;27;20043;-54
2021/12/15 04:31:11;;;;;;;31.20;12.70;;;;;;;-0.45;71.56;99551.06;5153758;27;20074;-51
2021/12/15 04:33:50;;;;;;;31.92;13.25;;;;;;;-0.33;71.24;99543.72;5153769;27;20038;-53
2021/12/15 04:36:17;;;;;;;36.97;12.15;;;;;;;-0.41;71.15;99543.72;5152976;27;20047;-52
2021/12/15 04:38:43;;;;;;;32.25;13.65;;;;;;;-0.53;71.32;99525.84;5153588;27;20049;-52
2021/12/15 04:41:13;;;;;;;30.85;11.95;;;;;;;-0.47;71.39;99537.41;5152759;27;20103;-55
2021/12/15 04:43:40;;;;;;;24.53;10.60;;;;;;;-0.56;71.46;99527.94;5153744;27;20042;-53
2021/12/15 04:46:09;;;;;;;28.40;11.82;;;;;;;-0.43;71.32;99530.88;5153066;27;20428;-54
2021/12/15 04:48:37;;;;;;;33.50;12.35;;;;;;;-0.36;70.74;99529.22;5153568;27;20048;-55
2021/12/15 04:51:04;;;;;;;26.50;11.75;;;;;;;-0.36;70.38;99534.44;5153209;27;20049;-53
2021/12/15 04:53:30;;;;;;;28.83;11.35;;;;;;;-0.43;71.06;99538.69;5153656;27;20117;-54
2021/12/15 04:55:56;;;;;;;25.48;11.27;;;;;;;-0.42;71.09;99531.69;5152774;27;20154;-55
2021/12/15 04:58:22;;;;;;;25.45;11.80;;;;;;;-0.34;70.62;99532.50;5153271;27;20054;-57
2021/12/15 05:00:55;;;;;;;31.13;11.32;;;;;;;-0.35;70.50;99537.88;5151645;27;20042;-59
2021/12/15 05:03:22;;;;;;;29.17;10.75;;;;;;;-0.34;70.87;99521.28;5153131;27;20053;-64
2021/12/15 05:05:49;;;;;;;23.25;9.60;;;;;;;-0.22;70.55;99527.78;5152572;27;20038;-54
2021/12/15 05:08:17;;;;;;;31.55;12.90;;;;;;;-0.14;70.66;99532.16;5096223;27;20057;-58
2021/12/15 05:10:43;;;;;;;26.45;10.13;;;;;;;-0.21;69.74;99524.19;5136242;27;20480;-58
2021/12/15 05:13:10;;;;;;;25.10;11.23;;;;;;;-0.22;70.14;99524.34;5153294;27;20133;-59
2021/12/15 05:15:37;;;;;;;16.92;8.55;;;;;;;-0.17;69.53;99522.88;5153147;27;20054;-56
2021/12/15 05:18:04;;;;;;;18.48;8.80;;;;;;;-0.25;69.51;99512.47;5152022;27;20098;-59
2021/12/15 05:20:32;;;;;;;16.45;8.10;;;;;;;-0.24;69.73;99524.50;5152385;27;20137;-57
2021/12/15 05:22:58;;;;;;;19.63;7.45;;;;;;;-0.11;69.45;99524.03;5152687;27;20062;-57
2021/12/15 05:25:24;;;;;;;18.65;7.82;;;;;;;-0.16;69.25;99524.50;5152819;27;20035;-54
2021/12/15 05:27:50;;;;;;;18.75;8.65;;;;;;;-0.09;69.28;99515.06;5152699;27;20042;-56
2021/12/15 05:30:18;;;;;;;26.85;9.50;;;;;;;-0.10;68.88;99517.81;5151003;27;20035;-57
2021/12/15 05:32:44;;;;;;;16.23;7.03;;;;;;;-0.08;69.23;99521.91;5151007;27;20043;-57
2021/12/15 05:35:14;;;;;;;17.42;8.30;;;;;;;-0.03;69.24;99527.44;5152807;27;20147;-56
2021/12/15 05:37:40;;;;;;;16.10;7.47;;;;;;;-0.06;69.08;99526.94;5151039;27;20047;-56
2021/12/15 05:40:07;;;;;;;18.45;7.90;;;;;;;-0.13;69.78;99537.19;5153007;27;20123;-57
2021/12/15 05:42:33;;;;;;;19.48;9.07;;;;;;;-0.10;69.14;99541.28;5152334;27;20250;-56
2021/12/15 05:44:59;;;;;;;23.05;9.00;;;;;;;-0.16;69.62;99534.13;5126114;27;20497;-59
2021/12/15 05:47:26;;;;;;;19.67;9.57;;;;;;;-0.17;69.99;99529.91;5149273;27;20126;-58
2021/12/15 05:49:52;;;;;;;21.17;10.77;;;;;;;-0.15;69.75;99541.75;5148831;27;20039;-57
2021/12/15 05:52:19;;;;;;;17.20;8.82;;;;;;;-0.09;69.76;99538.53;5152040;27;20035;-57
2021/12/15 05:54:45;;;;;;;16.58;7.22;;;;;;;-0.01;69.84;99532.47;5155290;27;20042;-58
2021/12/15 05:57:12;;;;;;;17.83;7.40;;;;;;;-0.15;69.74;99533.94;5155093;27;20458;-56
2021/12/15 05:59:38;;;;;;;14.38;7.25;;;;;;;-0.10;69.65;99536.06;5153133;27;20166;-58
2021/12/15 06:02:05;;;;;;;15.75;7.20;;;;;;;-0.18;69.62;99541.28;5153249;27;20070;-54
2021/12/15 06:04:30;;;;;;;10.00;6.03;;;;;;;-0.15;69.97;99535.75;5153124;27;20047;-55
2021/12/15 06:06:57;;;;;;;15.73;6.53;;;;;;;-0.26;70.36;99535.09;5154649;27;20054;-54
2021/12/15 06:09:23;;;;;;;11.23;6.10;;;;;;;-0.15;70.18;99536.53;5136741;27;20053;-56
2021/12/15 06:11:52;;;;;;;11.25;5.97;;;;;;;-0.08;70.21;99536.72;5153853;27;20389;-61
2021/12/15 06:14:23;;;;;;;13.25;6.63;;;;;;;-0.07;70.05;99540.94;5154446;27;20416;-56
2021/12/15 06:16:51;;;;;;;13.57;6.65;;;;;;;0.04;69.89;99534.59;5154318;27;20054;-57
2021/12/15 06:19:17;;;;;;;16.40;7.47;;;;;;;0.07;69.72;99527.25;5153295;27;20039;-56
2021/12/15 06:21:43;;;;;;;14.45;7.10;;;;;;;0.12;69.31;99526.72;5151948;27;20487;-55
2021/12/15 06:24:09;;;;;;;12.35;6.45;;;;;;;0.12;69.45;99524.13;5154402;27;20064;-54
2021/12/15 06:26:35;;;;;;;15.18;6.53;;;;;;;0.11;69.44;99519.91;5154698;27;20175;-55
2021/12/15 06:29:01;;;;;;;10.75;5.60;;;;;;;0.01;68.93;99509.66;5151818;27;20031;-54
2021/12/15 06:31:27;;;;;;;12.65;6.30;;;;;;;0.03;70.00;99512.94;5151677;27;20072;-55
2021/12/15 06:33:52;;;;;;;10.77;5.70;;;;;;;0.08;69.25;99520.22;5152668;27;20049;-57
2021/12/15 06:36:21;;;;;;;11.05;5.20;;;;;;;0.14;69.22;99509.13;5151206;27;20047;-55
2021/12/15 06:38:50;;;;;;;11.38;6.15;;;;;;;0.29;68.47;99517.88;5152591;27;20034;-53
2021/12/15 06:41:16;;;;;;;10.75;6.05;;;;;;;0.33;68.67;99510.56;5153576;27;20137;-55
2021/12/15 06:43:46;;;;;;;9.95;6.20;;;;;;;0.30;68.57;99516.94;5152891;27;20034;-61
2021/12/15 06:57:32;;;;;;;15.48;8.15;;;;;;;0.38;69.02;99510.84;5150541;27;20093;-54
2021/12/15 07:00:08;;;;;;;16.70;7.80;;;;;;;0.25;68.83;99518.41;5152201;27;20049;-55
2021/12/15 07:02:34;;;;;;;15.38;7.63;;;;;;;0.34;69.51;99506.97;5150675;27;20046;-56
2021/12/15 07:05:00;;;;;;;12.65;6.80;;;;;;;0.41;69.18;99513.13;5152389;27;20032;-55
2021/12/15 07:07:26;;;;;;;13.85;7.50;;;;;;;0.30;69.35;99511.72;5152328;27;20043;-55
2021/12/15 07:09:52;;;;;;;16.10;7.43;;;;;;;0.27;68.97;99511.25;5152843;27;20042;-54
2021/12/15 07:12:17;;;;;;;14.05;7.05;;;;;;;0.08;69.55;99512.41;5153984;27;20065;-54
2021/12/15 07:14:43;;;;;;;14.90;7.40;;;;;;;-0.02;69.80;99518.63;5150812;27;20061;-52
2021/12/15 07:17:18;;;;;;;16.65;8.15;;;;;;;-0.03;70.44;99518.78;5150509;27;20054;-56
2021/12/15 07:20:06;;;;;;;18.30;7.78;;;;;;;-0.10;70.35;99510.00;5152845;27;20041;-55
2021/12/15 07:22:34;;;;;;;17.83;8.25;;;;;;;0.18;69.94;99526.91;5153992;27;20091;-59
2021/12/15 07:25:01;;;;;;;20.08;8.95;;;;;;;0.32;69.98;99522.78;5153164;27;20038;-51
2021/12/15 07:27:28;;;;;;;15.52;7.55;;;;;;;0.43;69.48;99527.63;5150929;27;20058;-50
2021/12/15 07:29:54;;;;;;;16.98;8.00;;;;;;;0.46;69.28;99534.31;5152110;27;20047;-50
2021/12/15 07:32:20;;;;;;;17.33;8.32;;;;;;;0.40;69.51;99527.97;5151256;27;20064;-53
2021/12/15 07:34:46;;;;;;;15.82;7.93;;;;;;;0.37;69.72;99530.91;5151833;27;20043;-59
2021/12/15 07:37:12;;;;;;;15.70;8.10;;;;;;;0.17;69.46;99524.44;5151286;27;20139;-55
2021/12/15 07:39:43;;;;;;;15.70;8.88;;;;;;;0.20;69.78;99524.91;5151636;27;20031;-56
2021/12/15 07:42:12;;;;;;;15.30;7.90;;;;;;;0.14;70.11;99527.38;5151483;27;20046;-55
2021/12/15 07:44:38;;;;;;;14.77;8.45;;;;;;;0.19;69.97;99523.31;5150703;27;20031;-53
2021/12/15 07:47:05;;;;;;;16.77;8.70;;;;;;;0.20;70.39;99517.09;5153658;27;20038;-56
2021/12/15 07:49:32;;;;;;;17.02;8.35;;;;;;;0.33;69.85;99521.81;5151034;27;20107;-56
2021/12/15 07:52:04;;;;;;;19.98;9.48;;;;;;;0.43;69.77;99534.66;5150732;27;20138;-56
2021/12/15 07:54:33;;;;;;;16.00;7.85;;;;;;;0.60;69.42;99532.78;5153307;27;20506;-56
2021/12/15 07:57:01;;;;;;;17.40;8.95;;;;;;;0.63;68.67;99532.47;5153045;27;20054;-56
2021/12/15 07:59:27;;;;;;;13.65;7.95;;;;;;;0.63;68.54;99530.66;5153150;27;20065;-56
2021/12/15 08:01:52;;;;;;;18.63;9.45;;;;;;;0.65;68.62;99533.91;5153547;27;20042;-54
2021/12/15 08:04:19;;;;;;;18.00;9.40;;;;;;;0.55;68.85;99525.47;5153169;27;20069;-54
2021/12/15 08:06:46;;;;;;;17.33;8.18;;;;;;;0.63;68.72;99538.47;5152568;27;20046;-56
2021/12/15 08:09:12;;;;;;;15.73;8.75;;;;;;;0.65;68.23;99535.72;5153556;27;20055;-56
2021/12/15 08:11:40;;;;;;;16.63;8.75;;;;;;;0.72;68.84;99535.84;5153826;27;20046;-56
2021/12/15 08:14:06;;;;;;;16.90;8.77;;;;;;;0.74;68.23;99536.50;5151000;27;20043;-56
2021/12/15 08:16:33;;;;;;;17.77;9.02;;;;;;;0.67;69.25;99537.16;5151502;27;20516;-57
2021/12/15 08:18:59;;;;;;;16.67;8.90;;;;;;;0.74;68.32;99533.88;5153386;27;20073;-57
2021/12/15 08:21:25;;;;;;;17.15;8.60;;;;;;;0.73;68.64;99527.03;5152990;27;20047;-55
2021/12/15 08:23:51;;;;;;;16.88;9.00;;;;;;;0.76;68.49;99524.06;5153162;27;20038;-55
2021/12/15 08:26:17;;;;;;;16.65;8.95;;;;;;;0.78;68.73;99530.75;5153214;27;20049;-54
2021/12/15 08:28:43;;;;;;;15.93;8.80;;;;;;;0.84;68.29;99522.25;5152407;27;20038;-55
2021/12/15 08:31:09;;;;;;;16.85;9.60;;;;;;;0.77;68.80;99518.69;5153181;27;20049;-55
2021/12/15 08:33:36;;;;;;;15.18;9.45;;;;;;;0.84;68.65;99531.88;5153094;27;20039;-55
2021/12/15 08:36:05;;;;;;;21.77;9.57;;;;;;;0.94;68.29;99518.59;5152639;27;20049;-52
2021/12/15 08:38:33;;;;;;;15.27;9.32;;;;;;;0.89;68.71;99516.53;5153065;27;20069;-54
2021/12/15 08:41:01;;;;;;;20.67;9.52;;;;;;;0.85;68.97;99512.59;5153204;27;20103;-57
2021/12/15 08:43:27;;;;;;;14.88;8.85;;;;;;;0.90;69.00;99511.13;5152259;27;20035;-55
2021/12/15 08:46:06;;;;;;;17.20;10.00;;;;;;;0.92;69.08;99521.41;5153362;27;20048;-57
2021/12/15 08:48:33;;;;;;;17.60;9.27;;;;;;;0.89;68.86;99506.88;5133892;27;20407;-55
2021/12/15 08:50:59;;;;;;;17.10;9.90;;;;;;;1.04;68.47;99506.97;5150992;27;20416;-56
2021/12/15 08:53:25;;;;;;;18.17;10.20;;;;;;;0.99;68.52;99511.88;5134264;27;20045;-57
2021/12/15 08:55:51;;;;;;;15.50;9.38;;;;;;;0.97;68.57;99511.25;5152725;27;20050;-54
2021/12/15 08:58:18;;;;;;;17.30;9.45;;;;;;;0.83;68.46;99496.34;5152051;27;20049;-54
2021/12/15 09:00:46;;;;;;;19.45;10.40;;;;;;;1.01;68.57;99512.53;5152437;27;20042;-52
2021/12/15 09:03:13;;;;;;;21.50;10.43;;;;;;;1.05;68.39;99516.41;5152301;27;20038;-55
2021/12/15 09:05:40;;;;;;;19.52;10.10;;;;;;;1.06;67.72;99514.59;5152519;27;20039;-55
2021/12/15 09:08:07;;;;;;;19.88;10.23;;;;;;;1.05;68.04;99492.91;5148402;27;20469;-60
2021/12/15 09:10:34;;;;;;;15.75;9.82;;;;;;;1.05;68.60;99494.72;5150382;27;20046;-57
2021/12/15 09:13:01;;;;;;;19.38;10.30;;;;;;;1.18;68.44;99489.75;5152382;27;20503;-54
2021/12/15 09:15:27;;;;;;;16.45;9.57;;;;;;;1.27;67.91;99491.31;5151027;27;20480;-56
2021/12/15 09:17:53;;;;;;;19.77;10.63;;;;;;;1.30;67.44;99490.16;5150267;27;20066;-53
2021/12/15 09:20:25;;;;;;;18.00;10.07;;;;;;;1.22;67.55;99485.78;5151439;27;20522;-52
2021/12/15 09:22:51;;;;;;;16.58;9.77;;;;;;;1.28;68.22;99497.34;5152251;27;20035;-57
2021/12/15 09:25:17;;;;;;;16.88;9.90;;;;;;;1.35;67.88;99496.47;5151624;27;20066;-57
2021/12/15 09:27:44;;;;;;;15.32;10.27;;;;;;;1.17;68.15;99484.69;5151592;27;20512;-54
2021/12/15 09:30:14;;;;;;;19.48;10.70;;;;;;;1.16;68.33;99493.53;5147013;27;20493;-56
2021/12/15 09:32:40;;;;;;;18.77;10.20;;;;;;;1.23;68.49;99484.78;5142376;27;20046;-56
2021/12/15 09:35:07;;;;;;;19.92;10.32;;;;;;;1.23;68.75;99481.38;5152139;27;20292;-54
2021/12/15 09:37:33;;;;;;;16.77;10.40;;;;;;;1.09;68.65;99482.97;5152480;27;20043;-57
2021/12/15 09:39:59;;;;;;;18.40;10.15;;;;;;;1.06;68.97;99478.91;5149514;27;20061;-56
2021/12/15 09:42:32;;;;;;;20.00;10.90;;;;;;;1.08;68.68;99466.47;5152620;27;20046;-62
2021/12/15 09:45:14;;;;;;;18.60;10.00;;;;;;;1.13;69.45;99465.94;5151992;27;20092;-56
2021/12/15 09:48:05;;;;;;;19.63;10.77;;;;;;;1.08;69.03;99448.19;5150900;27;20043;-58
2021/12/15 10:18:04;;;;;;;17.10;8.60;;;;;;;1.54;68.57;99450.75;5151194;27;20461;-57
2021/12/15 10:20:32;;;;;;;17.95;9.13;;;;;;;1.55;68.05;99449.75;5151604;27;20039;-59
2021/12/15 10:23:02;;;;;;;17.83;9.98;;;;;;;1.45;67.85;99435.34;5151130;27;20091;-58
2021/12/15 10:25:32;;;;;;;20.83;9.82;;;;;;;1.50;68.54;99438.22;5151580;27;20043;-58
2021/12/15 10:28:05;;;;;;;16.83;8.98;;;;;;;1.52;68.12;99437.06;5151424;27;20133;-58
2021/12/15 10:30:33;;;;;;;17.25;9.02;;;;;;;1.65;67.94;99435.63;5115875;27;20498;-58
2021/12/15 10:33:04;;;;;;;16.30;8.70;;;;;;;1.67;68.00;99431.84;5150954;27;20101;-58
2021/12/15 10:35:33;;;;;;;15.73;8.65;;;;;;;1.40;67.90;99429.84;5151226;27;20047;-57
2021/12/15 10:38:18;;;;;;;18.15;9.95;;;;;;;1.22;68.78;99425.72;5133900;27;20087;-57
2021/12/15 10:40:49;;;;;;;16.50;8.63;;;;;;;1.31;68.93;99419.44;5154890;27;20038;-58
2021/12/15 10:43:16;;;;;;;21.17;9.07;;;;;;;1.32;69.03;99415.88;5155242;27;20035;-59
2021/12/15 10:45:52;;;;;;;24.50;9.48;;;;;;;1.38;68.53;99419.53;5152799;27;20423;-55
2021/12/15 10:48:35;;;;;;;16.58;8.77;;;;;;;1.42;68.28;99426.06;5152958;27;20070;-58
2021/12/15 10:51:18;;;;;;;18.73;8.60;;;;;;;1.40;68.75;99428.03;5153632;27;20504;-58
2021/12/15 10:53:44;;;;;;;15.80;8.52;;;;;;;1.34;68.45;99424.31;5153924;27;20445;-55
2021/12/15 10:56:12;;;;;;;17.40;8.50;;;;;;;1.23;69.17;99424.72;5153089;27;20087;-55
2021/12/15 10:58:42;;;;;;;14.18;8.43;;;;;;;1.03;69.21;99426.19;5154359;27;20065;-57
2021/12/15 11:01:47;;;;;;;16.17;8.93;;;;;;;0.98;69.49;99431.97;5153974;27;20296;-57
2021/12/15 11:04:24;;;;;;;17.17;8.60;;;;;;;0.89;70.46;99427.78;5153007;27;20057;-56
2021/12/15 11:07:02;;;;;;;14.45;7.55;;;;;;;0.94;70.02;99435.06;5151481;27;20047;-59
2021/12/15 11:09:33;;;;;;;14.32;7.85;;;;;;;1.02;69.46;99430.63;5153321;27;20042;-56
2021/12/15 11:12:01;;;;;;;19.05;9.85;;;;;;;1.10;69.83;99421.91;5151345;27;20051;-56
2021/12/15 11:14:31;;;;;;;16.65;8.48;;;;;;;1.12;69.58;99423.38;5152389;27;20043;-52
2021/12/15 11:17:11;;;;;;;17.95;8.05;;;;;;;1.17;69.62;99424.63;5153021;27;20071;-54
2021/12/15 11:20:10;;;;;;;15.23;8.38;;;;;;;1.01;69.41;99433.41;5150577;27;20035;-53
2021/12/15 11:22:57;;;;;;;15.85;7.95;;;;;;;1.01;69.50;99442.06;5094079;27;20050;-51
2021/12/15 11:25:27;;;;;;;18.95;8.95;;;;;;;1.06;69.38;99439.75;5153903;27;20613;-53
2021/12/15 11:28:09;;;;;;;16.55;8.20;;;;;;;1.02;69.75;99437.63;5154208;27;20427;-55
2021/12/15 11:30:41;;;;;;;15.50;8.38;;;;;;;0.92;69.52;99437.88;5152599;27;20083;-53
2021/12/15 11:33:20;;;;;;;15.57;8.32;;;;;;;0.97;70.12;99438.19;5153591;27;20107;-53
2021/12/15 11:35:59;;;;;;;17.23;8.38;;;;;;;0.95;69.28;99440.13;5153141;27;20035;-52
2021/12/15 11:38:32;;;;;;;17.03;8.57;;;;;;;1.00;69.71;99437.00;5150914;27;20051;-54
2021/12/15 11:40:58;;;;;;;13.93;7.50;;;;;;;1.08;70.23;99440.34;5149192;27;20038;-55
2021/12/15 11:43:34;;;;;;;18.50;8.48;;;;;;;1.07;69.93;99435.31;5152548;27;20062;-56
2021/12/15 11:46:03;;;;;;;19.33;8.82;;;;;;;1.02;69.14;99435.84;5151607;27;20468;-54
2021/12/15 11:48:36;;;;;;;15.95;8.30;;;;;;;0.98;69.85;99439.78;5151972;27;20406;-56
2021/12/15 11:51:04;;;;;;;18.30;8.82;;;;;;;0.93;69.93;99447.31;5152436;27;20047;-57
2021/12/15 11:53:32;;;;;;;17.25;7.60;;;;;;;0.81;69.94;99443.50;5148967;27;20041;-53
2021/12/15 11:56:33;;;;;;;14.88;7.93;;;;;;;0.81;70.67;99448.72;5153280;27;20058;-54
2021/12/15 11:59:21;;;;;;;14.45;7.50;;;;;;;0.79;70.27;99455.88;5142198;27;20405;-55
2021/12/15 12:01:59;;;;;;;12.43;7.07;;;;;;;0.78;70.70;99451.66;5140630;27;20138;-55
2021/12/15 12:04:29;;;;;;;14.25;7.70;;;;;;;0.83;71.29;99449.34;5151979;27;20042;-56
2021/12/15 12:07:34;;;;;;;17.88;7.00;;;;;;;0.81;70.49;99449.53;5152453;27;20095;-53
2021/12/15 12:10:28;;;;;;;15.02;7.57;;;;;;;0.79;70.55;99445.44;5149236;27;20423;-53
2021/12/15 12:13:06;;;;;;;12.95;7.10;;;;;;;0.85;70.30;99439.53;5151566;27;20512;-54
2021/12/15 12:15:35;;;;;;;12.82;6.95;;;;;;;0.79;70.71;99445.44;5150698;27;20115;-53
2021/12/15 12:18:05;;;;;;;16.10;8.73;;;;;;;0.83;70.91;99451.97;5149239;27;20054;-52
2021/12/15 12:20:35;;;;;;;15.93;6.97;;;;;;;0.88;70.16;99447.84;5150521;27;20042;-54
2021/12/15 12:23:04;;;;;;;15.05;6.82;;;;;;;0.88;70.42;99444.41;5149290;27;20039;-52
2021/12/15 12:25:34;;;;;;;13.10;6.90;;;;;;;0.79;70.30;99441.03;5148765;27;20031;-59
2021/12/15 12:28:00;;;;;;;13.02;7.25;;;;;;;0.66;70.47;99446.03;5150487;27;20413;-58
2021/12/15 12:30:36;;;;;;;14.07;7.15;;;;;;;0.63;71.29;99433.31;5147597;27;20567;-59
2021/12/15 12:33:08;;;;;;;15.73;8.38;;;;;;;0.64;71.40;99447.97;5148242;27;20058;-57
2021/12/15 12:35:36;;;;;;;13.85;7.05;;;;;;;0.66;71.03;99440.81;5136373;27;20535;-57
2021/12/15 12:38:08;;;;;;;11.73;6.68;;;;;;;0.51;71.32;99445.94;5149355;27;20063;-60
2021/12/15 12:40:39;;;;;;;15.23;7.20;;;;;;;0.43;72.58;99438.97;5150211;27;20038;-55
2021/12/15 12:43:23;;;;;;;;;;;;;;;0.48;71.96;99442.88;5149803;27;20129;-56
2021/12/15 12:46:20;;;;;;;14.95;7.68;;;;;;;0.52;71.86;99450.16;5151993;27;19919;-55
2021/12/15 13:00:09;;;;;;;15.00;7.63;;;;;;;0.58;72.10;99438.25;5147062;27;20102;-55
2021/12/15 13:02:44;;;;;;;14.95;7.22;;;;;;;0.51;71.81;99440.72;5146910;27;20038;-55
2021/12/15 13:05:28;;;;;;;13.23;6.78;;;;;;;0.51;72.36;99438.13;5148599;27;20054;-54